createdAt,value
2019-06-18T00:00:02.985Z,49.5
2019-06-18T00:05:03.064Z,49.62
2019-06-18T00:10:02.603Z,49.62
2019-06-18T00:15:03.044Z,49.76
2019-06-18T00:20:02.571Z,49.78
2019-06-18T00:25:03.041Z,50.07
2019-06-18T00:30:02.638Z,50.23
2019-06-18T00:35:03.086Z,50.34
2019-06-18T00:40:02.637Z,50.52
2019-06-18T00:45:03.096Z,50.45
2019-06-18T00:50:02.565Z,50.42
2019-06-18T00:55:02.994Z,50.45
2019-06-18T01:00:02.528Z,50.48
2019-06-18T01:05:03.053Z,50.53
2019-06-18T01:10:02.579Z,50.57
2019-06-18T01:15:03.217Z,50.57
2019-06-18T01:20:02.706Z,50.64
2019-06-18T01:25:03.294Z,50.79
2019-06-18T01:30:03.633Z,50.83
2019-06-18T01:35:02.715Z,50.85
2019-06-18T01:40:03.420Z,50.9
2019-06-18T01:45:03.363Z,50.92
2019-06-18T01:50:03.821Z,50.92
2019-06-18T01:55:03.135Z,50.97
2019-06-18T02:00:04.512Z,51.09
2019-06-18T02:05:03.569Z,51.16
2019-06-18T02:10:03.068Z,51.21
2019-06-18T02:15:03.064Z,51.2
2019-06-18T02:20:02.922Z,51.24
2019-06-18T02:25:03.328Z,51.27
2019-06-18T02:30:06.118Z,51.35
2019-06-18T02:35:03.363Z,51.36
2019-06-18T02:40:04.119Z,51.41
2019-06-18T02:45:03.690Z,51.44
2019-06-18T02:50:03.614Z,51.47
2019-06-18T02:55:03.198Z,51.5
2019-06-18T03:00:04.427Z,51.59
2019-06-18T03:05:03.307Z,51.67
2019-06-18T03:10:03.363Z,51.71
2019-06-18T03:15:03.735Z,51.74
2019-06-18T03:20:03.710Z,51.74
2019-06-18T03:25:03.375Z,51.72
2019-06-18T03:30:04.055Z,51.71
2019-06-18T03:35:03.797Z,51.75
2019-06-18T03:40:02.616Z,51.74
2019-06-18T03:45:03.113Z,51.71
2019-06-18T03:50:04.936Z,51.77
2019-06-18T03:55:03.824Z,51.78
2019-06-18T04:00:02.900Z,51.82
2019-06-18T04:05:03.833Z,51.94
2019-06-18T04:10:02.891Z,51.97
2019-06-18T04:15:03.493Z,52.03
2019-06-18T04:20:03.349Z,52.08
2019-06-18T04:25:03.740Z,52.11
2019-06-18T04:30:03.173Z,52.11
2019-06-18T04:35:03.969Z,52.13
2019-06-18T04:40:04.032Z,52.19
2019-06-18T04:45:03.184Z,52.27
2019-06-18T04:50:02.805Z,52.36
2019-06-18T04:55:03.605Z,52.44
2019-06-18T05:00:04.188Z,52.5
2019-06-18T05:05:03.692Z,52.58
2019-06-18T05:10:03.623Z,53.9
2019-06-18T05:15:03.174Z,58.15
2019-06-18T05:20:03.198Z,59.57
2019-06-18T05:25:03.034Z,59.94
2019-06-18T05:30:04.088Z,61.11
2019-06-18T05:35:03.627Z,61.6
2019-06-18T05:40:03.930Z,61.78
2019-06-18T05:45:02.672Z,62.25
2019-06-18T05:50:03.703Z,62.64
2019-06-18T05:55:04.245Z,63.75
2019-06-18T06:00:03.791Z,63.25
2019-06-18T06:05:03.406Z,62.18
2019-06-18T06:10:02.936Z,61.98
2019-06-18T06:15:03.474Z,61.37
2019-06-18T06:20:03.435Z,61.19
2019-06-18T06:25:03.465Z,60.87
2019-06-18T06:30:03.911Z,60.64
2019-06-18T06:35:03.163Z,60.83
2019-06-18T06:40:04.279Z,60.47
2019-06-18T06:45:04.007Z,59.41
2019-06-18T06:50:04.349Z,58.85
2019-06-18T06:55:03.604Z,58.7
2019-06-18T07:00:04.063Z,58.22
2019-06-18T07:05:03.638Z,58.03
2019-06-18T07:10:07.125Z,58.14
2019-06-18T07:15:02.988Z,57.57
2019-06-18T07:20:02.984Z,56.86
2019-06-18T07:25:02.880Z,56.0
2019-06-18T07:30:04.333Z,55.77
2019-06-18T07:35:03.175Z,54.91
2019-06-18T07:40:03.245Z,54.18
2019-06-18T07:45:04.739Z,54.05
2019-06-18T07:50:13.255Z,53.27
2019-06-18T07:55:03.781Z,52.19
2019-06-18T08:00:05.194Z,52.44
2019-06-18T08:05:03.765Z,51.65
2019-06-18T08:10:03.913Z,51.08
2019-06-18T08:15:04.214Z,50.77
2019-06-18T08:20:04.048Z,50.3
2019-06-18T08:25:03.676Z,49.82
2019-06-18T08:30:03.510Z,50.06
2019-06-18T08:35:03.075Z,49.52
2019-06-18T08:40:04.084Z,49.06
2019-06-18T08:45:03.846Z,47.96
2019-06-18T08:50:03.042Z,47.81
2019-06-18T08:55:02.768Z,46.22
2019-06-18T09:00:03.769Z,46.73
2019-06-18T09:05:03.296Z,45.94
2019-06-18T09:10:02.870Z,45.82
2019-06-18T09:15:03.563Z,44.74
2019-06-18T09:20:04.048Z,45.61
2019-06-18T09:25:02.561Z,45.34
2019-06-18T09:30:03.661Z,45.1
2019-06-18T09:35:03.458Z,45.53
2019-06-18T09:40:03.113Z,44.61
2019-06-18T09:45:03.375Z,44.98
2019-06-18T09:50:03.314Z,43.76
2019-06-18T09:55:03.539Z,44.99
2019-06-18T10:00:03.270Z,45.06
2019-06-18T10:05:03.496Z,44.53
2019-06-18T10:10:03.546Z,44.15
2019-06-18T10:15:04.007Z,43.5
2019-06-18T10:20:03.599Z,42.87
2019-06-18T10:25:03.565Z,42.0
2019-06-18T10:30:06.741Z,41.74
2019-06-18T10:35:03.380Z,41.74
2019-06-18T10:40:03.775Z,40.66
2019-06-18T10:45:03.492Z,41.41
2019-06-18T10:50:03.015Z,40.72
2019-06-18T10:55:03.935Z,39.94
2019-06-18T11:00:03.508Z,38.59
2019-06-18T11:05:03.793Z,39.84
2019-06-18T11:10:03.690Z,39.16
2019-06-18T11:15:03.350Z,39.39
2019-06-18T11:20:03.102Z,39.2
2019-06-18T11:25:02.733Z,39.11
2019-06-18T11:30:04.317Z,38.17
2019-06-18T11:35:02.887Z,39.21
2019-06-18T11:40:07.829Z,38.03
2019-06-18T11:45:03.688Z,38.12
2019-06-18T11:50:03.641Z,38.1
2019-06-18T11:55:03.845Z,37.84
2019-06-18T12:00:04.720Z,37.69
2019-06-18T12:05:02.993Z,37.84
2019-06-18T12:10:03.436Z,38.42
2019-06-18T12:15:03.894Z,34.6
2019-06-18T12:20:03.449Z,37.14
2019-06-18T12:25:03.050Z,36.15
2019-06-18T12:30:03.022Z,35.82
2019-06-18T12:35:03.044Z,36.83
2019-06-18T12:40:03.064Z,35.12
2019-06-18T12:45:03.940Z,33.43
2019-06-18T12:50:04.025Z,35.16
2019-06-18T12:55:04.565Z,35.39
2019-06-18T13:00:03.256Z,34.6
2019-06-18T13:05:03.497Z,34.01
2019-06-18T13:10:03.972Z,33.36
2019-06-18T13:15:02.548Z,31.34
2019-06-18T13:20:03.271Z,33.03
2019-06-18T13:25:04.663Z,32.73
2019-06-18T13:30:03.457Z,30.79
2019-06-18T13:35:03.551Z,33.01
2019-06-18T13:40:03.305Z,33.41
2019-06-18T13:45:04.108Z,34.0
2019-06-18T13:50:04.173Z,32.61
2019-06-18T13:55:02.927Z,32.29
2019-06-18T14:00:04.287Z,32.8
2019-06-18T14:05:03.205Z,32.85
2019-06-18T14:10:03.575Z,32.33
2019-06-18T14:15:03.347Z,31.46
2019-06-18T14:20:03.480Z,29.67
2019-06-18T14:25:03.156Z,32.04
2019-06-18T14:30:04.720Z,31.06
2019-06-18T14:35:03.657Z,32.0
2019-06-18T14:40:03.303Z,31.23
2019-06-18T14:45:02.758Z,30.51
2019-06-18T14:50:03.310Z,31.23
2019-06-18T14:55:03.862Z,28.09
2019-06-18T15:00:02.449Z,28.19
2019-06-18T15:05:03.053Z,29.2
2019-06-18T15:10:03.927Z,27.98
2019-06-18T15:15:02.622Z,28.54
2019-06-18T15:20:03.096Z,28.12
2019-06-18T15:25:02.525Z,28.87
2019-06-18T15:30:03.741Z,28.62
2019-06-18T15:35:03.397Z,29.81
2019-06-18T15:40:02.889Z,30.02
2019-06-18T15:45:03.362Z,31.13
2019-06-18T15:50:03.540Z,30.77
2019-06-18T15:55:03.564Z,31.84
2019-06-18T16:00:03.133Z,31.62
2019-06-18T16:05:03.150Z,31.68
2019-06-18T16:10:03.020Z,31.6
2019-06-18T16:15:02.569Z,32.05
2019-06-18T16:20:03.097Z,31.89
2019-06-18T16:25:13.051Z,32.79
2019-06-18T16:30:03.384Z,32.1
2019-06-18T16:35:03.736Z,32.82
2019-06-18T16:40:03.435Z,33.96
2019-06-18T16:45:03.502Z,33.64
2019-06-18T16:50:03.116Z,33.29
2019-06-18T16:55:02.765Z,33.75
2019-06-18T17:00:03.293Z,34.02
2019-06-18T17:05:02.914Z,34.53
2019-06-18T17:10:03.267Z,34.87
2019-06-18T17:15:03.011Z,35.33
2019-06-18T17:20:02.567Z,35.4
2019-06-18T17:25:03.001Z,35.47
2019-06-18T17:30:03.794Z,35.57
2019-06-18T17:35:02.658Z,35.4
2019-06-18T17:40:03.207Z,35.65
2019-06-18T17:45:03.112Z,36.39
2019-06-18T17:50:03.241Z,36.11
2019-06-18T17:55:02.878Z,36.06
2019-06-18T18:00:03.470Z,36.12
2019-06-18T18:05:03.116Z,36.6
2019-06-18T18:10:03.039Z,37.03
2019-06-18T18:15:02.714Z,37.09
2019-06-18T18:20:03.610Z,37.28
2019-06-18T18:25:03.263Z,37.67
2019-06-18T18:30:03.528Z,38.63
2019-06-18T18:35:03.357Z,39.48
2019-06-18T18:40:03.011Z,39.84
2019-06-18T18:45:02.630Z,40.12
2019-06-18T18:50:03.296Z,40.82
2019-06-18T18:55:03.303Z,41.08
2019-06-18T19:00:04.205Z,41.48
2019-06-18T19:05:03.532Z,41.99
2019-06-18T19:10:03.320Z,42.31
2019-06-18T19:15:03.350Z,43.1
2019-06-18T19:20:03.209Z,43.53
2019-06-18T19:25:03.221Z,43.96
2019-06-18T19:30:02.829Z,44.11
2019-06-18T19:35:03.307Z,44.16
2019-06-18T19:40:02.846Z,44.76
2019-06-18T19:45:03.528Z,45.15
2019-06-18T19:50:03.029Z,44.57
2019-06-18T19:55:03.174Z,44.12
2019-06-18T20:00:03.547Z,44.03
2019-06-18T20:05:03.201Z,43.91
2019-06-18T20:10:02.757Z,43.92
2019-06-18T20:15:03.262Z,44.25
2019-06-18T20:20:03.241Z,44.42
2019-06-18T20:25:02.848Z,45.29
2019-06-18T20:30:03.467Z,45.22
2019-06-18T20:35:03.093Z,45.63
2019-06-18T20:40:02.778Z,45.59
2019-06-18T20:45:03.349Z,45.36
2019-06-18T20:50:03.274Z,45.67
2019-06-18T20:55:03.457Z,46.55
2019-06-18T21:00:03.022Z,46.54
2019-06-18T21:05:02.563Z,46.94
2019-06-18T21:10:03.485Z,47.27
2019-06-18T21:15:03.077Z,47.5
2019-06-18T21:20:02.707Z,47.86
2019-06-18T21:25:03.216Z,47.74
2019-06-18T21:30:03.607Z,47.28
2019-06-18T21:35:03.380Z,47.35
2019-06-18T21:40:03.932Z,47.16
2019-06-18T21:45:02.772Z,47.25
2019-06-18T21:50:03.308Z,47.2
2019-06-18T21:55:03.663Z,47.3
2019-06-18T22:00:03.636Z,47.27
2019-06-18T22:05:04.033Z,47.55
2019-06-18T22:10:03.166Z,47.61
2019-06-18T22:15:03.778Z,47.73
2019-06-18T22:20:03.646Z,47.74
2019-06-18T22:25:03.506Z,47.83
2019-06-18T22:30:02.989Z,47.95
2019-06-18T22:35:03.916Z,48.0
2019-06-18T22:40:03.414Z,48.15
2019-06-18T22:45:03.627Z,48.29
2019-06-18T22:50:04.119Z,48.38
2019-06-18T22:55:02.925Z,48.47
2019-06-18T23:00:08.761Z,48.58
2019-06-18T23:05:03.179Z,48.66
2019-06-18T23:10:03.595Z,48.75
2019-06-18T23:15:03.223Z,48.9
2019-06-18T23:20:03.149Z,49.24
2019-06-18T23:25:02.802Z,49.33
2019-06-18T23:30:03.321Z,49.39
2019-06-18T23:35:03.148Z,49.4
2019-06-18T23:40:03.099Z,49.43
2019-06-18T23:45:03.316Z,49.36
2019-06-18T23:50:03.706Z,49.41
2019-06-18T23:55:03.513Z,49.41
